Ana Sayfa
METAR-TAF:

METAR-TAF

Havaalanları :

Camagüey, Küba

Enlem: 21-25N, Boylam: 077-51W, yükseklik: 122 m

Güncel hava durumu gözlemi

Rapor saat 17:50 UTC de 36 dakika önce yapıldı.
Rüzgar doğudan 8 kt, kuzeydoğu ve güneydoğu arasında değişken
Sıcaklık 32°C
Nem 59%
Basınç 1015 hPa
Görüş mesafesi: 9000 m
2000 ft yükseklikte az bulutlu
20000 ft yükseklikte parçalı çok bulutlu

METAR: MUCM 161750Z 08008KT 040V130 9000 FEW020 BKN200 32/23 Q1015

Saat: 14:26 (18:26 UTC)

Tahmin

Rapor saat 17:00 UTC de 1 saat ve 26 dakika önce yapıldı.
Ayın 16'si saat 18 UTC'den ayın 17'si saat 18 UTC'ye kadar geçerli Tahmin
Rüzgar kuzeydoğudan 12 kt
Görüş mesafesi: 9000 m
2000 ft yükseklikte parçalı bulutlu
Dönüşüyor
ayın 17'si saat 01 UTC'den ayın 17'si saat 02 UTC'ye kadar
Rüzgar kuzeydoğudan 5 kt
Dönüşüyor
ayın 17'si saat 13 UTC'den ayın 17'si saat 15 UTC'ye kadar
Rüzgar kuzeydoğudan 10 kt

TAF: MUCM 161700Z 1618/1718 04012KT 9000 SCT020 BECMG 1701/1702 04005KT BECMG 1713/1715 05010KT

4.000'den fazla havaalanı için hava durumu gözlemleri ve tahminleri (METAR ve TAF raporları).

Kullanılabilir istasyonlar harita üzerinde sarı ve kırmızı noktalarla gösterilir.

İstasyonun adını görmek için fareyi noktanın üzerinde gezdirin.

Sonrasında hava gözlem ve tahminlerini görmek için tıklayın.

Haritayı değiştirmek için: yaklaştırmak için siyah artı işaretli yeşil düğmeye ve uzaklaştırmak için de eksi işaretli düğmeye hızla tıklayın; bitişik haritalar için yeşil okları kullanın.


METAR-TAF: